createdAt,value
2018-10-05T00:02:25.310Z,79.31
2018-10-05T00:07:18.019Z,79.05
2018-10-05T00:12:10.752Z,79.70
2018-10-05T00:17:03.482Z,79.98
2018-10-05T00:21:56.137Z,80.00
2018-10-05T00:26:48.832Z,79.75
2018-10-05T00:31:41.563Z,80.36
2018-10-05T00:36:34.279Z,80.39
2018-10-05T00:41:26.967Z,80.39
2018-10-05T00:46:19.639Z,79.75
2018-10-05T00:51:12.267Z,79.94
2018-10-05T00:56:05.026Z,79.49
2018-10-05T01:00:57.693Z,79.54
2018-10-05T01:05:50.381Z,79.59
2018-10-05T01:10:43.087Z,79.60
2018-10-05T01:15:35.847Z,79.40
2018-10-05T01:20:28.466Z,78.88
2018-10-05T01:25:21.106Z,79.30
2018-10-05T01:30:13.799Z,79.26
2018-10-05T01:35:06.628Z,79.07
2018-10-05T01:39:59.295Z,79.72
2018-10-05T01:44:52.028Z,79.39
2018-10-05T01:49:44.773Z,79.13
2018-10-05T01:54:37.503Z,79.28
2018-10-05T01:59:30.210Z,79.28
2018-10-05T02:04:22.961Z,79.21
2018-10-05T02:09:15.628Z,79.56
2018-10-05T02:14:08.299Z,79.15
2018-10-05T02:19:00.914Z,79.27
2018-10-05T02:23:53.557Z,79.25
2018-10-05T02:28:46.247Z,79.38
2018-10-05T02:33:38.882Z,79.19
2018-10-05T02:38:31.749Z,78.59
2018-10-05T02:43:24.345Z,79.07
2018-10-05T02:48:17.002Z,78.87
2018-10-05T02:53:09.666Z,78.66
2018-10-05T02:58:02.324Z,78.36
2018-10-05T03:02:54.953Z,77.90
2018-10-05T03:07:47.729Z,78.43
2018-10-05T03:12:40.372Z,78.50
2018-10-05T03:17:33.035Z,78.21
2018-10-05T03:22:25.755Z,78.05
2018-10-05T03:27:18.568Z,77.92
2018-10-05T03:32:11.182Z,77.36
2018-10-05T03:37:03.817Z,76.71
2018-10-05T03:41:56.414Z,76.87
2018-10-05T03:46:49.125Z,76.68
2018-10-05T03:51:41.776Z,76.11
2018-10-05T03:56:34.458Z,75.60
2018-10-05T04:01:27.085Z,76.58
2018-10-05T04:06:19.914Z,76.45
2018-10-05T04:11:12.558Z,76.18
2018-10-05T04:16:05.222Z,75.84
2018-10-05T04:20:57.878Z,75.77
2018-10-05T04:25:50.632Z,76.10
2018-10-05T04:30:43.314Z,76.14
2018-10-05T04:35:36.042Z,75.88
2018-10-05T04:40:28.820Z,76.30
2018-10-05T04:45:21.666Z,76.16
2018-10-05T04:50:14.362Z,75.91
2018-10-05T04:55:07.047Z,75.33
2018-10-05T04:59:59.803Z,75.61
2018-10-05T05:04:52.678Z,75.36
2018-10-05T05:09:45.403Z,75.32
2018-10-05T05:14:38.193Z,75.71
2018-10-05T05:19:30.938Z,75.56
2018-10-05T05:24:23.586Z,75.09
2018-10-05T05:29:16.256Z,74.68
2018-10-05T05:34:08.919Z,74.85
2018-10-05T05:39:01.485Z,74.36
2018-10-05T05:43:54.187Z,74.67
2018-10-05T05:48:46.889Z,73.87
2018-10-05T05:53:39.659Z,74.02
2018-10-05T05:58:32.423Z,73.81
2018-10-05T06:03:25.074Z,74.21
2018-10-05T06:08:17.880Z,73.52
2018-10-05T06:13:10.512Z,73.51
2018-10-05T06:18:03.187Z,73.71
2018-10-05T06:22:55.961Z,73.55
2018-10-05T06:27:48.688Z,73.06
2018-10-05T06:32:41.566Z,72.62
2018-10-05T06:37:34.282Z,72.36
2018-10-05T06:42:27.591Z,71.88
2018-10-05T06:47:20.279Z,71.26
2018-10-05T06:52:12.992Z,71.19
2018-10-05T06:57:05.741Z,70.88
2018-10-05T07:01:58.613Z,70.17
2018-10-05T07:06:51.159Z,69.84
2018-10-05T07:11:43.838Z,67.50
2018-10-05T07:16:36.481Z,68.39
2018-10-05T07:21:29.441Z,67.14
2018-10-05T07:26:22.189Z,67.42
2018-10-05T07:31:14.896Z,66.36
2018-10-05T07:36:07.602Z,65.15
2018-10-05T07:41:00.333Z,65.98
2018-10-05T07:45:52.946Z,64.00
2018-10-05T07:50:45.621Z,63.95
2018-10-05T07:55:38.206Z,62.39
2018-10-05T08:00:30.807Z,62.61
2018-10-05T08:05:23.430Z,62.29
2018-10-05T08:10:16.115Z,61.46
2018-10-05T08:15:08.790Z,59.87
2018-10-05T08:20:01.414Z,59.65
2018-10-05T08:24:54.074Z,59.72
2018-10-05T08:29:46.692Z,58.64
2018-10-05T08:34:39.551Z,57.93
2018-10-05T08:39:32.103Z,56.96
2018-10-05T08:44:24.794Z,57.17
2018-10-05T08:49:17.455Z,55.68
2018-10-05T08:54:10.038Z,54.49
2018-10-05T08:59:02.660Z,53.09
2018-10-05T09:03:55.291Z,53.35
2018-10-05T09:08:48.110Z,53.53
2018-10-05T09:13:40.850Z,51.91
2018-10-05T09:18:33.530Z,52.02
2018-10-05T09:23:26.242Z,50.42
2018-10-05T09:28:18.853Z,50.78
2018-10-05T09:33:11.480Z,48.34
2018-10-05T09:38:04.180Z,48.16
2018-10-05T09:42:56.861Z,48.64
2018-10-05T09:47:49.486Z,47.24
2018-10-05T09:52:42.090Z,46.63
2018-10-05T09:57:34.777Z,46.29
2018-10-05T10:02:33.292Z,45.13
2018-10-05T10:07:26.065Z,43.87
2018-10-05T10:12:18.648Z,44.10
2018-10-05T10:17:11.296Z,43.80
2018-10-05T10:22:03.938Z,43.16
2018-10-05T10:26:56.518Z,42.95
2018-10-05T10:31:49.227Z,41.37
2018-10-05T10:41:41.206Z,42.12
2018-10-05T10:46:34.352Z,41.70
2018-10-05T10:51:27.182Z,40.99
2018-10-05T10:56:19.920Z,40.20
2018-10-05T11:01:12.551Z,39.89
2018-10-05T11:06:05.202Z,40.31
2018-10-05T11:10:57.897Z,41.06
2018-10-05T11:15:50.862Z,39.94
2018-10-05T11:20:43.529Z,39.33
2018-10-05T11:25:36.127Z,38.95
2018-10-05T11:30:28.689Z,38.12
2018-10-05T11:35:21.377Z,38.76
2018-10-05T11:40:14.118Z,38.60
2018-10-05T11:45:06.746Z,37.83
2018-10-05T11:49:59.499Z,38.98
2018-10-05T11:54:52.528Z,38.32
2018-10-05T11:59:45.168Z,38.23
2018-10-05T12:04:37.774Z,38.75
2018-10-05T12:09:30.710Z,39.12
2018-10-05T12:14:23.489Z,39.01
2018-10-05T12:19:16.074Z,37.63
2018-10-05T12:24:08.726Z,38.11
2018-10-05T12:29:01.340Z,38.23
2018-10-05T12:33:54.122Z,37.80
2018-10-05T12:38:46.927Z,38.08
2018-10-05T12:43:39.860Z,36.60
2018-10-05T12:48:32.779Z,36.90
2018-10-05T12:53:25.535Z,36.68
2018-10-05T12:58:18.300Z,36.64
2018-10-05T13:03:11.073Z,36.92
2018-10-05T13:08:03.798Z,37.02
2018-10-05T13:12:56.447Z,36.14
2018-10-05T13:17:49.387Z,35.29
2018-10-05T13:22:42.156Z,35.31
2018-10-05T13:27:34.913Z,36.05
2018-10-05T13:32:27.489Z,35.08
2018-10-05T13:37:20.358Z,36.40
2018-10-05T13:42:12.958Z,35.34
2018-10-05T13:47:05.549Z,35.50
2018-10-05T13:51:58.142Z,35.70
2018-10-05T13:56:51.151Z,35.33
2018-10-05T14:01:43.788Z,35.46
2018-10-05T14:06:36.421Z,35.93
2018-10-05T14:11:29.018Z,35.46
2018-10-05T14:16:21.678Z,35.38
2018-10-05T14:21:14.454Z,35.71
2018-10-05T14:26:07.062Z,35.78
2018-10-05T14:30:59.730Z,35.91
2018-10-05T14:35:52.349Z,36.15
2018-10-05T14:40:44.998Z,36.02
2018-10-05T14:45:37.665Z,36.48
2018-10-05T14:50:30.313Z,36.94
2018-10-05T14:55:22.985Z,36.78
2018-10-05T15:00:15.622Z,37.29
2018-10-05T15:05:08.302Z,37.57
2018-10-05T15:10:00.914Z,37.09
2018-10-05T15:14:53.627Z,36.83
2018-10-05T15:19:46.304Z,37.75
2018-10-05T15:24:39.122Z,37.35
2018-10-05T15:29:32.637Z,38.23
2018-10-05T15:34:25.374Z,38.36
2018-10-05T15:39:18.102Z,38.23
2018-10-05T15:44:10.721Z,38.61
2018-10-05T15:49:03.291Z,39.06
2018-10-05T15:53:55.939Z,39.46
2018-10-05T15:58:48.858Z,39.06
2018-10-05T16:03:41.533Z,39.21
2018-10-05T16:08:34.181Z,39.72
2018-10-05T16:13:26.842Z,40.03
2018-10-05T16:18:19.607Z,40.19
2018-10-05T16:23:12.212Z,40.54
2018-10-05T16:28:04.858Z,40.15
2018-10-05T16:32:57.467Z,40.77
2018-10-05T16:37:51.317Z,40.78
2018-10-05T16:42:44.002Z,40.93
2018-10-05T16:47:36.611Z,42.89
2018-10-05T16:52:29.304Z,43.16
2018-10-05T16:57:21.965Z,42.96
2018-10-05T17:02:14.554Z,44.53
2018-10-05T17:07:07.243Z,44.07
2018-10-05T17:12:00.087Z,44.90
2018-10-05T17:16:52.817Z,44.90
2018-10-05T17:21:45.458Z,44.61
2018-10-05T17:26:38.071Z,44.37
2018-10-05T17:31:30.690Z,45.03
2018-10-05T17:36:23.479Z,45.24
2018-10-05T17:41:16.180Z,44.65
2018-10-05T17:46:08.751Z,45.15
2018-10-05T17:51:01.680Z,45.83
2018-10-05T17:55:54.732Z,46.36
2018-10-05T18:00:47.553Z,47.19
2018-10-05T18:05:40.202Z,47.67
2018-10-05T18:10:33.004Z,48.61
2018-10-05T18:15:25.716Z,49.04
2018-10-05T18:20:18.474Z,49.41
2018-10-05T18:25:11.072Z,49.64
2018-10-05T18:30:04.079Z,50.13
2018-10-05T18:34:56.774Z,49.37
2018-10-05T18:39:49.459Z,49.25
2018-10-05T18:44:42.058Z,49.24
2018-10-05T18:49:34.694Z,49.45
2018-10-05T18:54:27.508Z,49.93
2018-10-05T18:59:20.111Z,49.40
2018-10-05T19:04:12.795Z,49.66
2018-10-05T19:09:06.070Z,49.39
2018-10-05T19:13:58.735Z,49.05
2018-10-05T19:18:51.424Z,49.38
2018-10-05T19:23:44.075Z,50.38
2018-10-05T19:28:36.753Z,50.18
2018-10-05T19:33:29.383Z,49.94
2018-10-05T19:38:22.032Z,49.44
2018-10-05T19:43:14.604Z,50.21
2018-10-05T19:48:07.212Z,49.91
2018-10-05T19:52:59.890Z,49.97
2018-10-05T19:57:52.566Z,50.65
2018-10-05T20:02:45.206Z,50.59
2018-10-05T20:07:38.022Z,50.24
2018-10-05T20:12:30.671Z,50.42
2018-10-05T20:17:23.367Z,50.70
2018-10-05T20:22:16.026Z,50.63
2018-10-05T20:27:08.691Z,51.06
2018-10-05T20:32:01.397Z,51.22
2018-10-05T20:36:54.269Z,50.78
2018-10-05T20:41:46.750Z,51.47
2018-10-05T20:46:39.391Z,51.71
2018-10-05T20:51:35.058Z,51.92
2018-10-05T20:56:27.861Z,51.97
2018-10-05T21:01:20.562Z,51.86
2018-10-05T21:06:13.219Z,52.06
2018-10-05T21:11:05.877Z,52.11
2018-10-05T21:15:58.627Z,51.84
2018-10-05T21:20:51.323Z,51.96
2018-10-05T21:25:44.062Z,52.61
2018-10-05T21:30:36.724Z,53.22
2018-10-05T21:35:29.357Z,53.28
2018-10-05T21:40:23.107Z,53.38
2018-10-05T21:45:15.874Z,53.13
2018-10-05T21:50:08.487Z,53.89
2018-10-05T21:55:01.169Z,53.83
2018-10-05T21:59:53.812Z,53.74
2018-10-05T22:04:46.459Z,53.90
2018-10-05T22:09:39.122Z,54.09
2018-10-05T22:14:31.798Z,54.42
2018-10-05T22:19:24.446Z,54.47
2018-10-05T22:24:17.102Z,54.72
2018-10-05T22:29:09.779Z,54.64
2018-10-05T22:34:02.444Z,54.67
2018-10-05T22:38:55.157Z,55.12
2018-10-05T22:43:48.351Z,55.21
2018-10-05T22:48:40.947Z,54.64
2018-10-05T22:53:33.593Z,54.16
2018-10-05T22:58:26.282Z,55.08
2018-10-05T23:03:18.870Z,54.94
2018-10-05T23:08:11.472Z,54.87
2018-10-05T23:13:04.137Z,55.06
2018-10-05T23:17:56.843Z,55.10
2018-10-05T23:22:49.559Z,55.30
2018-10-05T23:27:42.222Z,54.96
2018-10-05T23:32:34.903Z,55.40
2018-10-05T23:37:27.551Z,55.65
2018-10-05T23:42:20.224Z,56.17
2018-10-05T23:47:12.867Z,56.03
2018-10-05T23:52:22.121Z,56.35
2018-10-05T23:57:14.795Z,56.44
